Main page
METAR-TAF:

METAR-TAF

Airports :

Frontone, Italy

latitude: 43-31N, longitude: 012-44E, elevation: 570 m

Current weather observation

The report was made 1 hour and 17 minutes ago, at 20:55 UTC
Wind 14 kt from the South/Southwest with gusts up to 27 kt
Temperature 25°C
Humidity 47%
Pressure 1015 hPa
Visibility 10 km or more
no clouds below 1500 m and no cumulonimbus

METAR: LIVF 192055Z 21014G27KT CAVOK 25/13 Q1015 RMK SCT FEW080 SCT230 MON LIB VAL NIL VIS MIN 9999

Time: 00:12 (22:12 UTC)


TAF: missing

Weather observations and forecasts of more than 4000 airports (METAR and TAF reports).

The available stations are represented by yellow and red dots on the map.

Hover mouse over dot to see the name of the station.

Then click to see weather observations and forecasts.

To change the map : click on the green buttons with a black cross to zoom in, on the green button with a dash to zoom out, or on the green arrows for adjacent maps.


METAR-TAF: